• Join FlightAware (Why Join?)
  • Login
  • US Flag 
03:48PM EDT


 

Airport Tracker/Info


-or-


 

Live Flight TrackerFlight Track Log ✈ ASA603 ✈ 02-May-2013 ✈ KLAS - KSEA

Flight Track Log - Related Links

Times and Time Zones

All times are in EDT time to prevent confusion due to time zone crossing. See the ASA603 flight status page for this flight to view local times or setup timezone preferences in your user account.

Time Position Orientation Groundspeed Altitude Reporting Facility
EDT Latitude Longitude Course Direction KTS MPH feet Rate Location/Type
10:05AM 36.0753 -115.1153 88° East 170 196 3,400  Level Los Angeles Center
10:06AM 36.0769 -115.0533 88° East 204 235 5,800 2,700 Climbing Los Angeles Center
10:07AM 36.0756 -115.0294 94° East 197 227 6,800 1,020 Climbing Los Angeles Center
10:07AM 36.0681 -114.9633 98° East 254 292 7,000 900 Climbing Los Angeles Center
10:08AM 36.0006 -114.9219 154° Southeast 286 329 8,500 1,860 Climbing Los Angeles Center
10:10AM 35.9167 -114.9631 202° Southwest 324 373 10,900 2,280 Climbing Los Angeles Center
10:10AM 35.9019 -114.9703 202° Southwest 312 359 11,400 2,640 Climbing Los Angeles Center
10:11AM 35.8644 -115.0494 240° Southwest 351 404 13,600 2,760 Climbing Los Angeles Center
10:11AM 35.8658 -115.0706 275° West 345 397 14,300 3,000 Climbing Los Angeles Center
10:12AM 35.8717 -115.1939 273° West 353 406 17,500 2,340 Climbing Los Angeles Center
10:13AM 35.8756 -115.3189 272° West 358 412 19,200 2,100 Climbing Los Angeles Center
10:14AM 35.8794 -115.4467 272° West 365 420 21,900 2,400 Climbing Los Angeles Center
10:15AM 35.8833 -115.5814 272° West 380 437 24,200 2,340 Climbing Los Angeles Center
10:16AM 35.8892 -115.7467 273° West 396 456 26,800 2,220 Climbing Los Angeles Center
10:17AM 35.9306 -115.8706 292° West 400 460 28,800 1,740 Climbing Los Angeles Center
10:18AM 36.0031 -115.9692 312° West 406 467 30,400 1,440 Climbing Los Angeles Center
10:19AM 36.0903 -116.0897 312° West 417 480 31,800 1,320 Climbing Los Angeles Center
10:20AM 36.1706 -116.1992 312° West 426 490 33,200 1,320 Climbing Los Angeles Center
10:21AM 36.2397 -116.2928 313° West 428 493 34,600 1,560 Climbing Los Angeles Center
10:22AM 36.3336 -116.4236 312° West 425 489 36,400 1,560 Climbing Los Angeles Center
10:23AM 36.4106 -116.5300 312° West 418 481 37,900 720 Climbing Los Angeles Center
10:24AM 36.4867 -116.6369 312° West 415 478 38,000  Climbing Los Angeles Center
10:25AM 36.5608 -116.7392 312° West 415 478 38,000  Level Los Angeles Center
10:26AM 36.6778 -116.8333 327° Northwest 420 483 38,000  Level Los Angeles Center
10:27AM 36.7600 -116.8953 329° Northwest 417 480 38,000  Level Los Angeles Center
10:28AM 36.8750 -116.9836 328° Northwest 414 476 38,000  Level Los Angeles Center
10:29AM 36.9539 -117.0444 328° Northwest 416 479 38,000  Level Oakland Center
10:30AM 37.0517 -117.1214 328° Northwest 414 476 38,000  Level Oakland Center
10:31AM 37.1508 -117.1983 328° Northwest 416 479 38,000  Level Oakland Center
10:32AM 37.2489 -117.2736 329° Northwest 414 476 38,000  Level Oakland Center
10:33AM 37.3442 -117.3511 327° Northwest 407 468 38,000  Level Oakland Center
10:34AM 37.4372 -117.4372 324° Northwest 412 474 38,000  Level Oakland Center
10:35AM 37.5300 -117.5225 324° Northwest 411 473 38,000  Level Oakland Center
10:36AM 37.6233 -117.6067 324° Northwest 410 472 38,000  Level Oakland Center
10:37AM 37.7161 -117.6911 324° Northwest 409 471 38,000  Level Oakland Center
10:38AM 37.8264 -117.7936 324° Northwest 407 468 38,000  Level Oakland Center
10:39AM 37.9183 -117.8775 324° Northwest 405 466 38,000  Level Oakland Center
10:40AM 38.0108 -117.9617 324° Northwest 406 467 38,000  Level Oakland Center
10:41AM 38.1011 -118.0472 323° Northwest 404 465 38,000  Level Oakland Center
10:42AM 38.1803 -118.1203 324° Northwest 403 464 38,000  Level Oakland Center
10:43AM 38.2881 -118.2211 324° Northwest 400 460 38,000  Level Oakland Center
10:44AM 38.3775 -118.3044 324° Northwest 399 459 38,000  Level Oakland Center
10:45AM 38.4683 -118.3894 324° Northwest 402 463 38,000  Level Oakland Center
10:46AM 38.5572 -118.4747 323° Northwest 399 459 38,000  Level Oakland Center
10:48AM 38.6475 -118.5586 324° Northwest 401 461 38,000  Level Oakland Center
10:49AM 38.7381 -118.6447 323° Northwest 405 466 38,000  Level Oakland Center
10:50AM 38.8297 -118.7325 323° Northwest 408 470 38,000  Level Oakland Center
10:51AM 38.9211 -118.8200 323° Northwest 410 472 38,000  Level Oakland Center
10:52AM 39.0122 -118.9078 323° Northwest 407 468 38,000  Level Oakland Center
10:53AM 39.1047 -118.9969 323° Northwest 411 473 38,000  Level Oakland Center
10:54AM 39.2081 -119.0950 324° Northwest 409 471 38,000  Level Oakland Center
10:55AM 39.3019 -119.1475 337° Northwest 410 472 38,000  Level Oakland Center
10:56AM 39.4094 -119.1989 340° North 409 471 38,000  Level Oakland Center
10:57AM 39.5386 -119.2606 340° North 409 471 38,000  Level Oakland Center
10:58AM 39.6447 -119.3125 339° North 406 467 38,000  Level Oakland Center
10:59AM 39.7508 -119.3642 339° North 405 466 38,000  Level Oakland Center
11:00AM 39.8581 -119.4156 340° North 408 470 38,000  Level Oakland Center
11:01AM 39.9631 -119.4686 339° North 405 466 38,000  Level Oakland Center
11:02AM 40.0708 -119.5203 340° North 411 473 38,000  Level Oakland Center
11:03AM 40.1781 -119.5725 340° North 411 473 38,000  Level Oakland Center
11:04AM 40.2844 -119.6258 339° North 410 472 38,000  Level Oakland Center
11:05AM 40.3931 -119.6783 340° North 413 475 38,000  Level Oakland Center
11:06AM 40.4983 -119.7333 338° Northwest 408 470 38,000  Level Oakland Center
11:07AM 40.6075 -119.7889 339° North 407 468 38,000  Level Oakland Center
11:08AM 40.7144 -119.8436 339° North 410 472 38,000  Level Oakland Center
11:09AM 40.8211 -119.8981 339° North 411 473 38,000  Level Oakland Center
11:09AM 40.8864 -119.9281 341° North 410 472 38,000  Level Seattle Center
11:10AM 40.9936 -119.9819 339° North 410 472 38,000  Level Seattle Center
11:11AM 41.1000 -120.0350 339° North 408 470 38,000  Level Seattle Center
11:12AM 41.1628 -120.0689 338° Northwest 408 470 38,000  Level Oakland Center
11:12AM 41.2058 -120.0906 339° North 410 472 38,000  Level Seattle Center
11:13AM 41.3111 -120.1442 339° North 406 467 38,000  Level Seattle Center
11:14AM 41.4158 -120.1981 339° North 404 465 38,000  Level Seattle Center
11:15AM 41.5214 -120.2522 339° North 405 466 38,000  Level Seattle Center
11:16AM 41.6289 -120.3061 339° North 410 472 38,000  Level Seattle Center
11:18AM 41.7369 -120.3600 340° North 413 475 38,000  Level Seattle Center
11:19AM 41.8408 -120.4178 337° Northwest 407 468 38,000  Level Seattle Center
11:20AM 41.9469 -120.4728 339° North 410 472 38,000  Level Seattle Center
11:21AM 42.0564 -120.5289 339° North 418 481 38,000  Level Seattle Center
11:22AM 42.1644 -120.5850 339° North 418 481 38,000  Level Seattle Center
11:23AM 42.2936 -120.6539 338° Northwest 418 481 38,000  Level Seattle Center
11:24AM 42.3981 -120.7081 339° North 409 471 38,000  Level Seattle Center
11:25AM 42.5019 -120.7639 338° Northwest 404 465 38,000  Level Seattle Center
11:26AM 42.6047 -120.8183 339° North 401 461 38,000  Level Seattle Center
11:27AM 42.7078 -120.8742 338° Northwest 400 460 38,000  Level Seattle Center
11:28AM 42.8078 -120.9264 339° North 392 451 38,000  Level Seattle Center
11:29AM 42.9086 -120.9800 339° North 392 451 38,000  Level Seattle Center
11:30AM 43.0097 -121.0339 339° North 391 450 38,000  Level Seattle Center
11:31AM 43.1119 -121.0903 338° Northwest 396 456 38,000  Level Seattle Center
11:32AM 43.2131 -121.1467 338° Northwest 395 455 38,000  Level Seattle Center
11:33AM 43.3136 -121.1997 339° North 390 449 38,000  Level Seattle Center
11:34AM 43.4136 -121.2525 339° North 387 445 38,000  Level Seattle Center
11:35AM 43.5136 -121.3092 338° Northwest 388 447 38,000  Level Seattle Center
11:36AM 43.6342 -121.3792 337° Northwest 392 451 38,000  Level Seattle Center
11:37AM 43.7369 -121.4339 339° North 396 456 38,000  Level Seattle Center
11:38AM 43.8258 -121.4847 338° Northwest 401 461 38,000  Level Seattle Center
11:39AM 43.9311 -121.5403 339° North 404 465 38,000  Level Seattle Center
11:40AM 44.0519 -121.6094 338° Northwest 392 451 38,000  Level Seattle Center
11:41AM 44.1469 -121.6628 338° Northwest 373 429 38,000  Level Seattle Center
11:42AM 44.2419 -121.7158 338° Northwest 368 423 38,000  Level Seattle Center
11:43AM 44.3342 -121.7683 338° Northwest 361 415 38,000  Level Seattle Center
11:44AM 44.4267 -121.8197 338° Northwest 358 412 38,000  Level Seattle Center
11:45AM 44.5164 -121.8708 338° Northwest 350 403 38,000  Level Seattle Center
11:46AM 44.6003 -121.9186 338° Northwest 355 409 38,000  Level Seattle Center
11:47AM 44.7153 -121.9847 338° Northwest 369 425 38,000  Level Seattle Center
11:48AM 44.8117 -122.0417 337° Northwest 376 433 38,000  Level Seattle Center
11:49AM 44.9028 -122.0944 338° Northwest 376 433 38,000  Level Seattle Center
11:50AM 44.9986 -122.1503 338° Northwest 375 432 38,000  Level Seattle Center
11:51AM 45.0964 -122.2072 338° Northwest 380 437 38,000  Level Seattle Center
11:52AM 45.1939 -122.2631 338° Northwest 379 436 38,000  Level Seattle Center
11:53AM 45.2908 -122.3197 338° Northwest 380 437 38,000 -360 Level Seattle Center
11:54AM 45.3883 -122.3778 337° Northwest 380 437 37,300 -840 Descending Seattle Center
11:55AM 45.4844 -122.4336 338° Northwest 377 434 36,300 -960 Descending Seattle Center
11:56AM 45.5822 -122.4908 338° Northwest 381 438 35,400 -1,080 Descending Seattle Center
11:57AM 45.7008 -122.5628 337° Northwest 386 444 34,200 -1,080 Descending Seattle Center
11:58AM 45.8075 -122.6078 344° North 401 461 33,300 -1,740 Descending Seattle Center
11:59AM 45.9192 -122.6342 351° North 408 470 30,700 -2,340 Descending Seattle Center
12:00PM 46.0211 -122.6561 351° North 399 459 28,600 -2,100 Descending Seattle Center
12:01PM 46.1250 -122.6828 350° North 385 443 26,500 -2,100 Descending Seattle Center
12:02PM 46.2275 -122.7003 353° North 376 433 24,400 -2,220 Descending Seattle Center
12:03PM 46.3458 -122.7203 353° North 362 417 22,000 -2,100 Descending Seattle Center
12:04PM 46.4436 -122.7161 North 356 410 20,200 -1,800 Descending Seattle Center
12:05PM 46.5406 -122.7156 360° North 353 406 18,400 -1,680 Descending Seattle Center
12:06PM 46.6342 -122.7097 North 342 394 16,800 -1,860 Descending Seattle Center
12:07PM 46.6703 -122.7094 360° North 338 389 16,000 -2,280 Descending Seattle Center
12:07PM 46.7347 -122.7067 North 339 390 14,500 -2,220 Descending Seattle Center
12:08PM 46.7622 -122.7053 North 336 387 13,800 -1,680 Descending Seattle Center
12:08PM 46.8250 -122.6947 North 329 379 12,800 -1,620 Descending Seattle Center
12:09PM 46.8553 -122.6522 44° Northeast 322 371 12,000 -1,920 Descending Seattle Center
12:09PM 46.8956 -122.5972 43° Northeast 319 367 10,900 -1,380 Descending Seattle Center
12:10PM 46.9181 -122.5664 43° Northeast 311 358 10,600 -900 Descending Seattle Center
12:10PM 46.9556 -122.5153 43° Northeast 300 345 10,000 -1,140 Descending Seattle Center
12:11PM 46.9783 -122.4886 39° Northeast 281 323 9,500 -1,380 Descending Seattle Center
12:11PM 47.0131 -122.4428 42° Northeast 277 319 8,600 -1,200 Descending Seattle Center
12:12PM 47.0372 -122.4239 28° Northeast 263 303 8,300 -1,020 Descending Seattle Center
12:12PM 47.0758 -122.3894 31° Northeast 264 304 7,600 -1,140 Descending Seattle Center
12:13PM 47.0972 -122.3717 30° Northeast 253 291 7,200 -1,200 Descending Seattle Center
12:13PM 47.1408 -122.3369 28° Northeast 252 290 6,400 -1,020 Descending Seattle Center
12:14PM 47.1553 -122.3367 North 245 282 6,300 -1,200 Descending Seattle Center
12:14PM 47.2053 -122.3306 North 230 265 5,200 -1,500 Descending Seattle Center
12:15PM 47.2203 -122.3306 360° North 224 258 4,800 -900 Descending Seattle Center
12:15PM 47.2672 -122.3222 North 225 259 4,300 -840 Descending Seattle Center
12:16PM 47.2825 -122.3222 360° North 212 244 4,000 -1,140 Descending Seattle Center
12:16PM 47.3172 -122.3147 North 186 214 3,200 -1,200 Descending Seattle Center
12:17PM 47.3339 -122.3139 North 163 188 2,700 -1,200 Descending Seattle Center
12:17PM 47.3653 -122.3122 North 163 188 2,000 -1,140 Descending Seattle Center
12:18PM 47.3761 -122.3136 355° North 146 168 1,600 -900 Descending Seattle Center
12:18PM 47.4036 -122.3114 North 143 165 1,100 -840 Descending Seattle Center
12:19PM 47.4175 -122.3103 North 133 153 800 -720 Descending Seattle Center
12:19PM 47.4394 -122.3114 358° North 132 152 400 -300 Descending Seattle Center
12:20PM 47.4697 -122.3108 North 132 152 300 -120 Descending Seattle Center
12:22PM 47.4499 -122.3118 180° South  Level Estimated